sensor_id;sensor_type;location;lat;lon;timestamp;pressure;altitude;pressure_sealevel;temperature;humidity
26657;BME280;14279;50.010;8.260;2023-06-22T00:01:47;100469.47;;;26.51;52.24
26657;BME280;14279;50.010;8.260;2023-06-22T00:04:12;100470.66;;;26.49;52.36
26657;BME280;14279;50.010;8.260;2023-06-22T00:06:37;100490.34;;;26.39;52.24
26657;BME280;14279;50.010;8.260;2023-06-22T00:09:03;100499.22;;;26.40;52.60
26657;BME280;14279;50.010;8.260;2023-06-22T00:11:28;100502.19;;;26.45;52.80
26657;BME280;14279;50.010;8.260;2023-06-22T00:13:54;100507.44;;;26.70;52.42
26657;BME280;14279;50.010;8.260;2023-06-22T00:16:19;100528.03;;;26.53;52.11
26657;BME280;14279;50.010;8.260;2023-06-22T00:18:44;100530.59;;;26.21;53.31
26657;BME280;14279;50.010;8.260;2023-06-22T00:21:12;100525.09;;;26.23;53.42
26657;BME280;14279;50.010;8.260;2023-06-22T00:23:38;100535.06;;;26.37;53.30
26657;BME280;14279;50.010;8.260;2023-06-22T00:26:03;100532.38;;;26.37;53.09
26657;BME280;14279;50.010;8.260;2023-06-22T00:28:28;100531.84;;;26.50;53.35
26657;BME280;14279;50.010;8.260;2023-06-22T00:30:54;100515.34;;;26.47;53.69
26657;BME280;14279;50.010;8.260;2023-06-22T00:33:19;100528.38;;;26.41;53.95
26657;BME280;14279;50.010;8.260;2023-06-22T00:35:44;100526.69;;;26.49;53.50
26657;BME280;14279;50.010;8.260;2023-06-22T00:38:10;100534.97;;;26.62;53.56
26657;BME280;14279;50.010;8.260;2023-06-22T00:40:36;100531.34;;;26.55;53.98
26657;BME280;14279;50.010;8.260;2023-06-22T00:43:01;100535.38;;;26.43;54.07
26657;BME280;14279;50.010;8.260;2023-06-22T00:45:27;100550.72;;;26.40;54.63
26657;BME280;14279;50.010;8.260;2023-06-22T00:47:53;100579.13;;;26.17;56.50
26657;BME280;14279;50.010;8.260;2023-06-22T00:50:20;100595.75;;;25.77;58.07
26657;BME280;14279;50.010;8.260;2023-06-22T00:52:57;100605.66;;;25.34;59.83
26657;BME280;14279;50.010;8.260;2023-06-22T00:55:24;100630.53;;;25.08;61.16
26657;BME280;14279;50.010;8.260;2023-06-22T00:57:51;100651.81;;;24.55;62.62
26657;BME280;14279;50.010;8.260;2023-06-22T01:00:22;100661.06;;;24.43;64.52
26657;BME280;14279;50.010;8.260;2023-06-22T01:02:50;100663.13;;;24.31;66.85
26657;BME280;14279;50.010;8.260;2023-06-22T01:05:18;100647.31;;;24.29;66.37
26657;BME280;14279;50.010;8.260;2023-06-22T01:08:04;100589.63;;;24.56;65.90
26657;BME280;14279;50.010;8.260;2023-06-22T01:10:41;100521.50;;;24.37;67.35
26657;BME280;14279;50.010;8.260;2023-06-22T01:13:27;100492.94;;;23.95;67.25
26657;BME280;14279;50.010;8.260;2023-06-22T01:16:02;100491.13;;;23.95;66.93
26657;BME280;14279;50.010;8.260;2023-06-22T01:18:30;100486.25;;;23.91;68.20
26657;BME280;14279;50.010;8.260;2023-06-22T01:20:57;100472.75;;;23.84;70.11
26657;BME280;14279;50.010;8.260;2023-06-22T01:26:19;100462.56;;;23.97;70.94
26657;BME280;14279;50.010;8.260;2023-06-22T01:28:48;100483.38;;;24.28;69.78
26657;BME280;14279;50.010;8.260;2023-06-22T01:31:18;100493.06;;;24.38;69.33
26657;BME280;14279;50.010;8.260;2023-06-22T01:33:47;100500.69;;;24.33;69.49
26657;BME280;14279;50.010;8.260;2023-06-22T01:36:14;100505.53;;;24.37;68.65
26657;BME280;14279;50.010;8.260;2023-06-22T01:38:40;100530.19;;;24.48;68.18
26657;BME280;14279;50.010;8.260;2023-06-22T01:41:06;100539.81;;;24.40;68.67
26657;BME280;14279;50.010;8.260;2023-06-22T01:43:32;100534.00;;;24.71;68.39
26657;BME280;14279;50.010;8.260;2023-06-22T01:46:00;100525.31;;;24.69;69.19
26657;BME280;14279;50.010;8.260;2023-06-22T01:48:26;100506.91;;;24.76;68.71
26657;BME280;14279;50.010;8.260;2023-06-22T01:50:52;100486.84;;;24.55;69.80
26657;BME280;14279;50.010;8.260;2023-06-22T01:53:23;100467.28;;;24.38;70.11
26657;BME280;14279;50.010;8.260;2023-06-22T01:55:49;100481.75;;;24.36;71.78
26657;BME280;14279;50.010;8.260;2023-06-22T01:58:15;100495.56;;;24.39;71.81
26657;BME280;14279;50.010;8.260;2023-06-22T02:00:48;100492.63;;;24.51;71.69
26657;BME280;14279;50.010;8.260;2023-06-22T02:03:21;100491.47;;;24.53;71.69
26657;BME280;14279;50.010;8.260;2023-06-22T02:06:06;100480.13;;;24.43;71.47
26657;BME280;14279;50.010;8.260;2023-06-22T02:08:48;100469.63;;;24.41;71.92
26657;BME280;14279;50.010;8.260;2023-06-22T02:11:16;100473.91;;;24.34;71.69
26657;BME280;14279;50.010;8.260;2023-06-22T02:13:44;100479.78;;;24.38;72.38
26657;BME280;14279;50.010;8.260;2023-06-22T02:16:11;100485.72;;;24.31;71.50
26657;BME280;14279;50.010;8.260;2023-06-22T02:18:36;100481.47;;;24.47;69.72
26657;BME280;14279;50.010;8.260;2023-06-22T02:21:02;100488.81;;;24.53;68.54
26657;BME280;14279;50.010;8.260;2023-06-22T02:23:28;100488.78;;;24.45;70.03
26657;BME280;14279;50.010;8.260;2023-06-22T02:25:53;100498.72;;;24.35;70.53
26657;BME280;14279;50.010;8.260;2023-06-22T02:28:19;100506.81;;;24.59;69.67
26657;BME280;14279;50.010;8.260;2023-06-22T02:30:44;100515.66;;;24.68;68.95
26657;BME280;14279;50.010;8.260;2023-06-22T02:33:09;100530.34;;;24.46;69.58
26657;BME280;14279;50.010;8.260;2023-06-22T02:35:34;100510.66;;;24.04;70.97
26657;BME280;14279;50.010;8.260;2023-06-22T02:38:02;100485.34;;;24.26;70.99
26657;BME280;14279;50.010;8.260;2023-06-22T02:40:29;100467.34;;;24.46;70.73
26657;BME280;14279;50.010;8.260;2023-06-22T02:42:55;100460.03;;;24.57;70.10
26657;BME280;14279;50.010;8.260;2023-06-22T02:45:20;100445.94;;;24.56;71.74
26657;BME280;14279;50.010;8.260;2023-06-22T02:47:46;100441.22;;;24.50;72.45
26657;BME280;14279;50.010;8.260;2023-06-22T02:50:13;100449.38;;;24.49;73.25
26657;BME280;14279;50.010;8.260;2023-06-22T02:52:38;100444.75;;;24.51;73.10
26657;BME280;14279;50.010;8.260;2023-06-22T02:55:04;100451.56;;;24.53;73.44
26657;BME280;14279;50.010;8.260;2023-06-22T02:57:30;100450.69;;;24.44;71.56
26657;BME280;14279;50.010;8.260;2023-06-22T02:59:55;100451.75;;;24.52;71.42
26657;BME280;14279;50.010;8.260;2023-06-22T03:02:20;100456.53;;;24.48;72.20
26657;BME280;14279;50.010;8.260;2023-06-22T03:04:46;100446.84;;;24.39;72.36
26657;BME280;14279;50.010;8.260;2023-06-22T03:07:15;100431.22;;;24.36;71.75
26657;BME280;14279;50.010;8.260;2023-06-22T03:09:40;100425.25;;;24.42;72.21
26657;BME280;14279;50.010;8.260;2023-06-22T03:12:08;100417.22;;;24.34;71.58
26657;BME280;14279;50.010;8.260;2023-06-22T03:14:33;100420.09;;;24.40;71.86
26657;BME280;14279;50.010;8.260;2023-06-22T03:16:58;100420.03;;;24.32;72.05
26657;BME280;14279;50.010;8.260;2023-06-22T03:19:28;100417.69;;;24.21;72.57
26657;BME280;14279;50.010;8.260;2023-06-22T03:21:54;100423.31;;;24.17;72.05
26657;BME280;14279;50.010;8.260;2023-06-22T03:24:19;100429.38;;;24.01;72.76
26657;BME280;14279;50.010;8.260;2023-06-22T03:26:45;100429.91;;;23.87;73.42
26657;BME280;14279;50.010;8.260;2023-06-22T03:29:12;100430.28;;;23.92;73.46
26657;BME280;14279;50.010;8.260;2023-06-22T03:31:37;100430.81;;;23.96;73.36
26657;BME280;14279;50.010;8.260;2023-06-22T03:34:02;100423.81;;;23.95;73.24
26657;BME280;14279;50.010;8.260;2023-06-22T03:36:27;100422.31;;;23.92;73.67
26657;BME280;14279;50.010;8.260;2023-06-22T03:38:53;100426.47;;;23.95;73.64
26657;BME280;14279;50.010;8.260;2023-06-22T03:41:18;100416.06;;;24.01;73.43
26657;BME280;14279;50.010;8.260;2023-06-22T03:43:43;100426.66;;;23.93;73.33
26657;BME280;14279;50.010;8.260;2023-06-22T03:46:08;100430.28;;;23.92;73.58
26657;BME280;14279;50.010;8.260;2023-06-22T03:48:34;100414.72;;;23.97;73.68
26657;BME280;14279;50.010;8.260;2023-06-22T03:51:00;100412.78;;;24.08;73.32
26657;BME280;14279;50.010;8.260;2023-06-22T03:53:25;100412.63;;;24.09;73.49
26657;BME280;14279;50.010;8.260;2023-06-22T03:55:51;100419.59;;;24.10;73.03
26657;BME280;14279;50.010;8.260;2023-06-22T03:58:18;100424.25;;;24.08;72.51
26657;BME280;14279;50.010;8.260;2023-06-22T04:00:45;100427.75;;;24.09;72.75
26657;BME280;14279;50.010;8.260;2023-06-22T04:03:10;100423.81;;;24.21;71.42
26657;BME280;14279;50.010;8.260;2023-06-22T04:05:38;100430.28;;;24.19;71.50
26657;BME280;14279;50.010;8.260;2023-06-22T04:08:04;100429.13;;;24.21;70.67
26657;BME280;14279;50.010;8.260;2023-06-22T04:10:29;100429.09;;;24.13;71.10
26657;BME280;14279;50.010;8.260;2023-06-22T04:12:54;100427.94;;;24.15;71.29
26657;BME280;14279;50.010;8.260;2023-06-22T04:15:19;100431.78;;;24.21;70.77
26657;BME280;14279;50.010;8.260;2023-06-22T04:17:45;100443.41;;;24.20;70.84
26657;BME280;14279;50.010;8.260;2023-06-22T04:20:10;100438.94;;;24.21;70.58
26657;BME280;14279;50.010;8.260;2023-06-22T04:22:35;100439.56;;;24.14;70.47
26657;BME280;14279;50.010;8.260;2023-06-22T04:25:01;100446.38;;;24.09;70.49
26657;BME280;14279;50.010;8.260;2023-06-22T04:27:26;100439.88;;;24.11;69.87
26657;BME280;14279;50.010;8.260;2023-06-22T04:29:51;100447.47;;;23.98;70.08
26657;BME280;14279;50.010;8.260;2023-06-22T04:32:17;100451.38;;;24.12;69.58
26657;BME280;14279;50.010;8.260;2023-06-22T04:34:42;100453.75;;;24.23;69.14
26657;BME280;14279;50.010;8.260;2023-06-22T04:37:08;100454.06;;;24.20;68.77
26657;BME280;14279;50.010;8.260;2023-06-22T04:39:33;100445.25;;;24.20;68.22
26657;BME280;14279;50.010;8.260;2023-06-22T04:41:59;100451.09;;;23.97;68.67
26657;BME280;14279;50.010;8.260;2023-06-22T04:44:27;100450.19;;;24.06;68.73
26657;BME280;14279;50.010;8.260;2023-06-22T04:46:54;100461.72;;;23.70;69.70
26657;BME280;14279;50.010;8.260;2023-06-22T04:49:26;100460.38;;;23.75;69.73
26657;BME280;14279;50.010;8.260;2023-06-22T04:51:57;100453.34;;;23.83;69.57
26657;BME280;14279;50.010;8.260;2023-06-22T04:54:23;100451.50;;;23.84;69.69
26657;BME280;14279;50.010;8.260;2023-06-22T04:56:48;100448.31;;;23.80;69.59
26657;BME280;14279;50.010;8.260;2023-06-22T04:59:21;100456.56;;;23.95;69.10
26657;BME280;14279;50.010;8.260;2023-06-22T05:01:46;100441.97;;;23.99;69.87
26657;BME280;14279;50.010;8.260;2023-06-22T05:04:12;100437.41;;;24.10;69.83
26657;BME280;14279;50.010;8.260;2023-06-22T05:06:38;100443.50;;;24.02;70.19
26657;BME280;14279;50.010;8.260;2023-06-22T05:09:03;100456.25;;;23.98;70.59
26657;BME280;14279;50.010;8.260;2023-06-22T05:11:30;100454.34;;;24.09;69.50
26657;BME280;14279;50.010;8.260;2023-06-22T05:13:55;100457.06;;;23.72;70.87
26657;BME280;14279;50.010;8.260;2023-06-22T05:16:22;100449.81;;;23.83;70.31
26657;BME280;14279;50.010;8.260;2023-06-22T05:18:52;100450.41;;;23.95;70.01
26657;BME280;14279;50.010;8.260;2023-06-22T05:21:23;100441.25;;;23.89;69.77
26657;BME280;14279;50.010;8.260;2023-06-22T05:23:50;100442.69;;;23.83;70.25
26657;BME280;14279;50.010;8.260;2023-06-22T05:26:15;100437.84;;;23.79;70.44
26657;BME280;14279;50.010;8.260;2023-06-22T05:28:40;100426.31;;;23.70;70.77
26657;BME280;14279;50.010;8.260;2023-06-22T05:31:06;100427.91;;;23.63;70.41
26657;BME280;14279;50.010;8.260;2023-06-22T05:33:31;100432.22;;;23.82;70.19
26657;BME280;14279;50.010;8.260;2023-06-22T05:35:59;100426.78;;;23.92;69.67
26657;BME280;14279;50.010;8.260;2023-06-22T05:38:25;100425.72;;;23.84;70.10
26657;BME280;14279;50.010;8.260;2023-06-22T05:40:50;100427.69;;;23.74;70.07
26657;BME280;14279;50.010;8.260;2023-06-22T05:43:29;100419.91;;;23.99;69.31
26657;BME280;14279;50.010;8.260;2023-06-22T05:45:55;100427.28;;;24.13;68.71
26657;BME280;14279;50.010;8.260;2023-06-22T05:48:20;100412.00;;;24.15;68.50
26657;BME280;14279;50.010;8.260;2023-06-22T05:50:45;100420.03;;;23.97;69.24
26657;BME280;14279;50.010;8.260;2023-06-22T05:53:12;100423.44;;;23.90;69.60
26657;BME280;14279;50.010;8.260;2023-06-22T05:55:41;100424.22;;;23.82;69.81
26657;BME280;14279;50.010;8.260;2023-06-22T05:58:08;100427.38;;;24.04;68.96
26657;BME280;14279;50.010;8.260;2023-06-22T06:00:33;100423.25;;;24.09;69.17
26657;BME280;14279;50.010;8.260;2023-06-22T06:02:58;100418.00;;;24.17;68.65
26657;BME280;14279;50.010;8.260;2023-06-22T06:05:28;100420.03;;;24.32;68.20
26657;BME280;14279;50.010;8.260;2023-06-22T06:07:53;100423.97;;;24.54;67.43
26657;BME280;14279;50.010;8.260;2023-06-22T06:10:18;100414.53;;;24.68;66.91
26657;BME280;14279;50.010;8.260;2023-06-22T06:12:44;100422.97;;;24.55;67.45
26657;BME280;14279;50.010;8.260;2023-06-22T06:15:09;100420.28;;;24.47;67.89
26657;BME280;14279;50.010;8.260;2023-06-22T06:17:34;100416.75;;;24.81;66.95
26657;BME280;14279;50.010;8.260;2023-06-22T06:20:00;100426.44;;;24.99;66.09
26657;BME280;14279;50.010;8.260;2023-06-22T06:22:26;100425.91;;;24.87;66.61
26657;BME280;14279;50.010;8.260;2023-06-22T06:24:51;100421.22;;;24.81;66.90
26657;BME280;14279;50.010;8.260;2023-06-22T06:27:16;100413.75;;;24.92;66.25
26657;BME280;14279;50.010;8.260;2023-06-22T06:29:43;100419.63;;;24.96;66.10
26657;BME280;14279;50.010;8.260;2023-06-22T06:32:10;100421.13;;;25.07;65.79
26657;BME280;14279;50.010;8.260;2023-06-22T06:34:36;100420.13;;;25.08;66.08
26657;BME280;14279;50.010;8.260;2023-06-22T06:37:29;100415.44;;;24.85;66.49
26657;BME280;14279;50.010;8.260;2023-06-22T06:40:17;100409.81;;;25.05;66.00
26657;BME280;14279;50.010;8.260;2023-06-22T06:42:44;100400.81;;;25.06;65.92
26657;BME280;14279;50.010;8.260;2023-06-22T06:45:23;100396.00;;;25.18;65.58
26657;BME280;14279;50.010;8.260;2023-06-22T06:47:50;100395.50;;;25.06;66.03
26657;BME280;14279;50.010;8.260;2023-06-22T06:50:16;100404.31;;;24.98;66.15
26657;BME280;14279;50.010;8.260;2023-06-22T06:52:41;100406.16;;;25.06;66.22
26657;BME280;14279;50.010;8.260;2023-06-22T06:55:07;100402.97;;;25.35;65.42
26657;BME280;14279;50.010;8.260;2023-06-22T06:57:37;100407.00;;;25.56;64.71
26657;BME280;14279;50.010;8.260;2023-06-22T07:00:04;100406.31;;;25.62;64.74
26657;BME280;14279;50.010;8.260;2023-06-22T07:02:34;100400.31;;;25.11;65.88
26657;BME280;14279;50.010;8.260;2023-06-22T07:05:00;100401.47;;;25.16;65.76
26657;BME280;14279;50.010;8.260;2023-06-22T07:07:25;100395.50;;;25.31;65.16
26657;BME280;14279;50.010;8.260;2023-06-22T07:09:50;100393.19;;;25.44;64.76
26657;BME280;14279;50.010;8.260;2023-06-22T07:12:15;100402.47;;;25.24;65.25
26657;BME280;14279;50.010;8.260;2023-06-22T07:14:41;100397.84;;;25.50;64.59
26657;BME280;14279;50.010;8.260;2023-06-22T07:17:06;100397.66;;;25.60;63.67
26657;BME280;14279;50.010;8.260;2023-06-22T07:19:32;100398.16;;;25.31;64.88
26657;BME280;14279;50.010;8.260;2023-06-22T07:21:58;100388.03;;;25.51;64.57
26657;BME280;14279;50.010;8.260;2023-06-22T07:24:24;100382.81;;;25.74;63.61
26657;BME280;14279;50.010;8.260;2023-06-22T07:26:49;100386.53;;;26.21;62.71
26657;BME280;14279;50.010;8.260;2023-06-22T07:29:18;100377.69;;;26.21;61.83
26657;BME280;14279;50.010;8.260;2023-06-22T07:31:46;100370.69;;;26.20;61.97
26657;BME280;14279;50.010;8.260;2023-06-22T07:34:12;100375.16;;;25.79;62.06
26657;BME280;14279;50.010;8.260;2023-06-22T07:36:37;100378.69;;;26.28;61.47
26657;BME280;14279;50.010;8.260;2023-06-22T07:39:03;100366.94;;;26.37;60.79
26657;BME280;14279;50.010;8.260;2023-06-22T07:41:29;100358.59;;;26.40;60.67
26657;BME280;14279;50.010;8.260;2023-06-22T07:43:54;100364.19;;;26.85;59.74
26657;BME280;14279;50.010;8.260;2023-06-22T07:46:19;100365.97;;;26.93;59.57
26657;BME280;14279;50.010;8.260;2023-06-22T07:48:45;100370.13;;;26.96;59.21
26657;BME280;14279;50.010;8.260;2023-06-22T07:51:10;100365.94;;;26.38;60.66
26657;BME280;14279;50.010;8.260;2023-06-22T07:53:39;100362.31;;;26.63;59.82
26657;BME280;14279;50.010;8.260;2023-06-22T07:56:05;100354.72;;;26.98;58.82
26657;BME280;14279;50.010;8.260;2023-06-22T07:58:32;100356.38;;;27.22;58.07
26657;BME280;14279;50.010;8.260;2023-06-22T08:00:57;100361.81;;;27.52;57.62
26657;BME280;14279;50.010;8.260;2023-06-22T08:03:23;100367.25;;;27.59;56.89
26657;BME280;14279;50.010;8.260;2023-06-22T08:05:48;100360.56;;;27.40;57.50
26657;BME280;14279;50.010;8.260;2023-06-22T08:08:14;100355.81;;;27.50;57.44
26657;BME280;14279;50.010;8.260;2023-06-22T08:10:39;100348.19;;;27.39;57.43
26657;BME280;14279;50.010;8.260;2023-06-22T08:13:06;100338.22;;;27.33;58.25
26657;BME280;14279;50.010;8.260;2023-06-22T08:15:31;100341.69;;;27.41;57.44
26657;BME280;14279;50.010;8.260;2023-06-22T08:17:56;100336.00;;;27.59;57.31
26657;BME280;14279;50.010;8.260;2023-06-22T08:20:23;100337.75;;;27.52;57.62
26657;BME280;14279;50.010;8.260;2023-06-22T08:22:48;100329.25;;;27.94;56.50
26657;BME280;14279;50.010;8.260;2023-06-22T08:25:13;100328.97;;;28.03;55.89
26657;BME280;14279;50.010;8.260;2023-06-22T08:27:38;100312.41;;;27.78;56.57
26657;BME280;14279;50.010;8.260;2023-06-22T08:30:05;100322.91;;;27.11;58.33
26657;BME280;14279;50.010;8.260;2023-06-22T08:32:31;100312.28;;;27.41;57.86
26657;BME280;14279;50.010;8.260;2023-06-22T08:34:57;100328.53;;;28.15;55.99
26657;BME280;14279;50.010;8.260;2023-06-22T08:37:23;100332.09;;;28.22;55.70
26657;BME280;14279;50.010;8.260;2023-06-22T08:39:56;100326.69;;;27.85;57.12
26657;BME280;14279;50.010;8.260;2023-06-22T08:42:21;100308.53;;;28.11;55.81
26657;BME280;14279;50.010;8.260;2023-06-22T08:44:48;100295.22;;;28.17;55.41
26657;BME280;14279;50.010;8.260;2023-06-22T08:47:13;100305.94;;;28.61;54.07
26657;BME280;14279;50.010;8.260;2023-06-22T08:49:38;100296.41;;;28.00;55.92
26657;BME280;14279;50.010;8.260;2023-06-22T08:52:04;100302.72;;;27.62;57.30
26657;BME280;14279;50.010;8.260;2023-06-22T08:54:29;100305.78;;;27.06;59.10
26657;BME280;14279;50.010;8.260;2023-06-22T08:56:59;100300.28;;;27.37;58.35
26657;BME280;14279;50.010;8.260;2023-06-22T08:59:24;100301.78;;;27.85;56.93
26657;BME280;14279;50.010;8.260;2023-06-22T09:01:50;100305.66;;;28.34;55.94
26657;BME280;14279;50.010;8.260;2023-06-22T09:04:15;100295.53;;;28.73;54.65
26657;BME280;14279;50.010;8.260;2023-06-22T09:06:40;100293.97;;;28.78;54.57
26657;BME280;14279;50.010;8.260;2023-06-22T09:09:10;100298.78;;;29.12;53.50
26657;BME280;14279;50.010;8.260;2023-06-22T09:11:35;100293.75;;;29.02;53.84
26657;BME280;14279;50.010;8.260;2023-06-22T09:14:01;100283.44;;;28.99;53.75
26657;BME280;14279;50.010;8.260;2023-06-22T09:16:26;100285.19;;;29.13;53.16
26657;BME280;14279;50.010;8.260;2023-06-22T09:18:51;100281.53;;;28.92;53.46
26657;BME280;14279;50.010;8.260;2023-06-22T09:21:16;100274.03;;;29.09;52.66
26657;BME280;14279;50.010;8.260;2023-06-22T09:23:41;100274.03;;;29.09;52.73
26657;BME280;14279;50.010;8.260;2023-06-22T09:26:08;100258.63;;;28.90;53.60
26657;BME280;14279;50.010;8.260;2023-06-22T09:28:33;100264.69;;;28.99;53.24
26657;BME280;14279;50.010;8.260;2023-06-22T09:30:59;100259.09;;;29.29;52.36
26657;BME280;14279;50.010;8.260;2023-06-22T09:33:25;100261.56;;;29.30;51.87
26657;BME280;14279;50.010;8.260;2023-06-22T09:35:51;100255.88;;;29.40;52.21
26657;BME280;14279;50.010;8.260;2023-06-22T09:38:17;100261.84;;;29.77;51.56
26657;BME280;14279;50.010;8.260;2023-06-22T09:40:42;100257.44;;;30.05;50.43
26657;BME280;14279;50.010;8.260;2023-06-22T09:43:08;100259.19;;;30.53;49.10
26657;BME280;14279;50.010;8.260;2023-06-22T09:45:33;100253.78;;;30.39;49.92
26657;BME280;14279;50.010;8.260;2023-06-22T09:47:59;100245.91;;;30.18;49.53
26657;BME280;14279;50.010;8.260;2023-06-22T09:50:24;100242.63;;;30.49;48.46
26657;BME280;14279;50.010;8.260;2023-06-22T09:52:49;100237.88;;;30.31;49.56
26657;BME280;14279;50.010;8.260;2023-06-22T09:55:20;100239.28;;;30.13;50.09
26657;BME280;14279;50.010;8.260;2023-06-22T09:57:45;100231.34;;;29.92;50.82
26657;BME280;14279;50.010;8.260;2023-06-22T10:00:11;100234.53;;;29.60;51.48
26657;BME280;14279;50.010;8.260;2023-06-22T10:02:41;100222.53;;;29.98;50.73
26657;BME280;14279;50.010;8.260;2023-06-22T10:05:06;100224.66;;;30.23;49.21
26657;BME280;14279;50.010;8.260;2023-06-22T10:07:33;100216.41;;;30.38;48.65
26657;BME280;14279;50.010;8.260;2023-06-22T10:09:58;100208.13;;;30.39;49.14
26657;BME280;14279;50.010;8.260;2023-06-22T10:12:23;100218.47;;;30.42;48.90
26657;BME280;14279;50.010;8.260;2023-06-22T10:14:48;100218.47;;;30.36;49.55
26657;BME280;14279;50.010;8.260;2023-06-22T10:17:14;100217.19;;;30.05;49.81
26657;BME280;14279;50.010;8.260;2023-06-22T10:19:39;100195.47;;;29.99;49.97
26657;BME280;14279;50.010;8.260;2023-06-22T10:22:06;100195.75;;;30.32;49.19
26657;BME280;14279;50.010;8.260;2023-06-22T10:24:32;100181.69;;;30.36;48.13
26657;BME280;14279;50.010;8.260;2023-06-22T10:26:57;100180.44;;;30.12;48.99
26657;BME280;14279;50.010;8.260;2023-06-22T10:29:22;100163.72;;;30.91;47.67
26657;BME280;14279;50.010;8.260;2023-06-22T10:31:48;100164.47;;;31.11;47.31
26657;BME280;14279;50.010;8.260;2023-06-22T10:34:13;100168.28;;;30.70;47.54
26657;BME280;14279;50.010;8.260;2023-06-22T10:36:38;100144.28;;;30.82;47.04
26657;BME280;14279;50.010;8.260;2023-06-22T10:39:04;100141.00;;;30.39;48.45
26657;BME280;14279;50.010;8.260;2023-06-22T10:41:29;100135.09;;;31.10;46.35
26657;BME280;14279;50.010;8.260;2023-06-22T10:43:55;100132.09;;;31.45;44.79
26657;BME280;14279;50.010;8.260;2023-06-22T10:46:21;100116.97;;;31.51;44.67
26657;BME280;14279;50.010;8.260;2023-06-22T10:48:46;100113.75;;;30.63;45.64
26657;BME280;14279;50.010;8.260;2023-06-22T10:51:12;100111.28;;;30.68;45.58
26657;BME280;14279;50.010;8.260;2023-06-22T10:53:37;100108.03;;;31.11;44.78
26657;BME280;14279;50.010;8.260;2023-06-22T10:56:03;100107.34;;;31.75;43.77
26657;BME280;14279;50.010;8.260;2023-06-22T10:58:28;100111.53;;;32.21;41.90
26657;BME280;14279;50.010;8.260;2023-06-22T11:00:54;100119.59;;;32.28;41.70
26657;BME280;14279;50.010;8.260;2023-06-22T11:03:19;100114.91;;;32.61;41.03
26657;BME280;14279;50.010;8.260;2023-06-22T11:05:44;100111.13;;;33.06;39.79
26657;BME280;14279;50.010;8.260;2023-06-22T11:08:11;100112.59;;;32.64;41.05
26657;BME280;14279;50.010;8.260;2023-06-22T11:10:36;100098.03;;;32.91;40.34
26657;BME280;14279;50.010;8.260;2023-06-22T11:13:01;100097.94;;;32.97;40.18
26657;BME280;14279;50.010;8.260;2023-06-22T11:15:29;100094.38;;;33.04;39.93
26657;BME280;14279;50.010;8.260;2023-06-22T11:17:54;100088.06;;;32.54;40.50
26657;BME280;14279;50.010;8.260;2023-06-22T11:20:19;100086.56;;;32.95;40.18
26657;BME280;14279;50.010;8.260;2023-06-22T11:22:45;100077.44;;;32.96;40.17
26657;BME280;14279;50.010;8.260;2023-06-22T11:25:10;100082.97;;;33.02;40.05
26657;BME280;14279;50.010;8.260;2023-06-22T11:27:37;100082.38;;;32.81;40.62
26657;BME280;14279;50.010;8.260;2023-06-22T11:30:02;100074.41;;;32.49;41.20
26657;BME280;14279;50.010;8.260;2023-06-22T11:32:28;100071.44;;;32.76;40.73
26657;BME280;14279;50.010;8.260;2023-06-22T11:34:53;100073.09;;;32.58;40.90
26657;BME280;14279;50.010;8.260;2023-06-22T11:37:18;100079.69;;;32.81;40.75
26657;BME280;14279;50.010;8.260;2023-06-22T11:39:44;100080.81;;;32.92;40.50
26657;BME280;14279;50.010;8.260;2023-06-22T11:42:09;100085.00;;;32.88;40.78
26657;BME280;14279;50.010;8.260;2023-06-22T11:44:35;100083.44;;;32.98;40.82
26657;BME280;14279;50.010;8.260;2023-06-22T11:47:00;100075.41;;;33.41;39.56
26657;BME280;14279;50.010;8.260;2023-06-22T11:49:26;100069.50;;;33.32;40.22
26657;BME280;14279;50.010;8.260;2023-06-22T11:51:52;100059.97;;;33.18;40.41
26657;BME280;14279;50.010;8.260;2023-06-22T11:54:17;100059.72;;;33.19;40.47
26657;BME280;14279;50.010;8.260;2023-06-22T11:56:42;100047.88;;;32.90;40.84
26657;BME280;14279;50.010;8.260;2023-06-22T11:59:07;100044.97;;;33.22;40.59
26657;BME280;14279;50.010;8.260;2023-06-22T12:01:33;100048.38;;;33.29;39.91
26657;BME280;14279;50.010;8.260;2023-06-22T12:03:58;100046.59;;;33.23;40.30
26657;BME280;14279;50.010;8.260;2023-06-22T12:06:23;100046.81;;;33.40;40.05
26657;BME280;14279;50.010;8.260;2023-06-22T12:08:49;100049.19;;;33.48;40.10
26657;BME280;14279;50.010;8.260;2023-06-22T12:11:14;100051.19;;;33.53;40.07
26657;BME280;14279;50.010;8.260;2023-06-22T12:13:39;100051.91;;;33.30;40.62
26657;BME280;14279;50.010;8.260;2023-06-22T12:16:04;100055.41;;;33.61;39.87
26657;BME280;14279;50.010;8.260;2023-06-22T12:18:30;100055.91;;;33.57;39.83
26657;BME280;14279;50.010;8.260;2023-06-22T12:20:55;100053.09;;;33.64;39.39
26657;BME280;14279;50.010;8.260;2023-06-22T12:23:20;100047.69;;;33.64;39.61
26657;BME280;14279;50.010;8.260;2023-06-22T12:25:45;100045.81;;;33.77;39.85
26657;BME280;14279;50.010;8.260;2023-06-22T12:28:11;100040.59;;;33.94;39.11
26657;BME280;14279;50.010;8.260;2023-06-22T12:30:36;100037.44;;;34.09;39.16
26657;BME280;14279;50.010;8.260;2023-06-22T12:33:01;100024.63;;;34.16;39.08
26657;BME280;14279;50.010;8.260;2023-06-22T12:35:26;100027.56;;;33.91;39.27
26657;BME280;14279;50.010;8.260;2023-06-22T12:37:52;100029.91;;;34.23;38.79
26657;BME280;14279;50.010;8.260;2023-06-22T12:40:17;100025.88;;;33.78;39.52
26657;BME280;14279;50.010;8.260;2023-06-22T12:42:44;100020.03;;;34.28;38.52
26657;BME280;14279;50.010;8.260;2023-06-22T12:45:10;100012.78;;;33.93;39.39
26657;BME280;14279;50.010;8.260;2023-06-22T12:47:35;100008.31;;;33.99;39.43
26657;BME280;14279;50.010;8.260;2023-06-22T12:50:00;100009.97;;;34.00;39.57